Midhurst, United Kingdom
Current Conditions -  °F | °C
As of 11:50 AM on Monday 24 Nov 2014 (Local Time) from EGVO Reporting Station
Clear Clear  
Wind Chill: 43°   Ceiling: Unl
Heat Index: 43°   Visibility: 6mi
Dew Point: 37°   Wind: 3mph
Humidity: 81%   Direction: 210°SSW
Pressure: 30.33"   Gusts: NA
Location:  50.99°N, 0.74°W
Report Text: EGVO 241150Z 21003KT CAVOK 06/03 Q1027 BLU NOSIG
Loading
Personal Weather Stations






























Interactive Weather Map New forecast layout! Learn more

10-Day Weather Forecast

Advertisements
Track Severe Weather on mobile